Nyk Olympus — 3EOS7 — position and weather

sailwx.info

Track history (hours):
 
Tides and Currents Weather Stations Pressure Air Temp Water Temp Dewpoint Dewpoint Depression Visibility Wind Speed Wind Dir Waves Ship Positions

Nyk Olympus

Last reported at 2016-Jun-01 01:31 UTC. Time now 2016-Jun-01 03:40 UTC.
Position N 32°46' E 028°13'.

Length 335 m; draft 12 m.

Type: Other ship. MMSI: 372478000.

Date/timePositionNaut miles runAvg speedWind from/ knotsBaromVisibWave heightAir tempDewpointWater temp
2016-Jun-01 01:31N 32°46' E 028°13'1915.8
2016-Jun-01 00:17N 32°52' E 027°51'39215.1
2016-May-30 22:23N 34°41' E 020°18'1315.1
2016-May-30 21:32N 34°45' E 020°03'1515.3
2016-May-30 20:32N 34°50' E 019°45'1515.2
2016-May-30 19:33N 34°54' E 019°28'1515.3
2016-May-30 18:33N 34°59' E 019°10'1815.7
2016-May-30 17:26N 35°05' E 018°50'1415.6
2016-May-30 16:32N 35°09' E 018°33'1515.4
2016-May-30 15:33N 35°14' E 018°16'1515.3
2016-May-30 14:33N 35°18' E 017°58'1515.1
2016-May-30 13:33N 35°23' E 017°40'1515.1
2016-May-30 12:33N 35°27' E 017°22'1615.1
2016-May-30 11:30N 35°32' E 017°04'1617.4
2016-May-30 10:33N 35°36' E 016°44'3617.9
2016-May-30 08:33N 35°46' E 016°02'1818.3
2016-May-30 07:33N 35°52' E 015°40'1818.2
2016-May-30 06:33N 35°56' E 015°19'1817.9
2016-May-30 05:33N 36°02' E 014°58'1818.2
2016-May-30 04:33N 36°07' E 014°36'1817.6
2016-May-30 03:33N 36°12' E 014°15'1717.5
2016-May-30 02:33N 36°17' E 013°55'1817.5
2016-May-30 01:33N 36°22' E 013°34'1818.4
2016-May-30 00:33N 36°28' E 013°12'1817.8
2016-May-29 23:33N 36°34' E 012°51'1818.0
2016-May-29 22:33N 36°44' E 012°32'1818.3
2016-May-29 21:33N 36°53' E 012°12'1818.3
2016-May-29 20:33N 37°02' E 011°52'1818.0
2016-May-29 19:33N 37°11' E 011°33'1818.2
2016-May-29 18:33N 37°20' E 011°13'1918.0
2016-May-29 17:30N 37°26' E 010°50'41818.2
2016-May-28 18:33N 36°53' E 002°07'1919.2
2016-May-28 17:33N 36°50' E 001°44'2019.0
2016-May-28 16:31N 36°47' E 001°19'4218.6
2016-May-28 14:17N 36°41' E 000°28'1318.3
2016-May-28 13:33N 36°39' E 000°12'1818.1
2016-May-28 12:33N 36°37' W 000°11'1918.2
2016-May-28 11:31N 36°34' W 000°34'1818.9
2016-May-28 10:33N 36°31' W 000°57'2019.5
2016-May-28 09:33N 36°28' W 001°21'18418.4
2016-May-27 23:33N 36°01' W 005°06'4120.4
2016-May-27 21:33N 35°54' W 005°56'85817.2
2016-May-25 19:33N 37°35' W 023°40'1414.0
2016-May-25 18:34N 37°36' W 023°57'1414.2
2016-May-25 17:33N 37°36' W 024°15'1414.1
2016-May-25 16:33N 37°36' W 024°33'1414.0
2016-May-25 15:33N 37°36' W 024°51'1414.1
2016-May-25 14:33N 37°37' W 025°09'1514.7
2016-May-25 13:33N 37°37' W 025°27'1414.4
2016-May-25 12:34N 37°38' W 025°45'1414.2
2016-May-25 11:34N 37°42' W 026°02'1413.9
2016-May-25 10:33N 37°47' W 026°19'1414.2
2016-May-25 09:34N 37°51' W 026°36'1414.3
2016-May-25 08:34N 37°55' W 026°53'1413.7
2016-May-25 07:33N 37°59' W 027°10'1414.0
2016-May-25 06:33N 38°03' W 027°27'1514.7
2016-May-25 05:33N 38°07' W 027°45'1514.7
2016-May-25 04:33N 38°12' W 028°02'1515.2
2016-May-25 03:33N 38°18' W 028°21'1515.1
2016-May-25 02:33N 38°23' W 028°39'1414.2
2016-May-25 01:33N 38°28' W 028°56'1413.9
2016-May-25 00:33N 38°34' W 029°12'1414.1
2016-May-24 23:33N 38°39' W 029°28'1414.1
2016-May-24 22:33N 38°45' W 029°45'1414.1
2016-May-24 21:33N 38°51' W 030°01'1414.1
2016-May-24 20:33N 38°57' W 030°18'1414.3
2016-May-24 19:33N 39°04' W 030°34'3514.2
2016-May-24 17:06N 39°16' W 031°16'814.3
2016-May-24 16:33N 39°17' W 031°26'1514.6
2016-May-24 15:31N 39°20' W 031°45'  
Track history (hours):
 
Tides and Currents Weather Stations Pressure Air Temp Water Temp Dewpoint Dewpoint Depression Visibility Wind Speed Wind Dir Waves Ship Positions

Nyk Olympus

Last reported at 2016-Jun-01 01:31 UTC. Time now 2016-Jun-01 03:40 UTC.
Position N 32°46' E 028°13'.

Length 335 m; draft 12 m.

Type: Other ship. MMSI: 372478000.

Date/timePositionNaut miles runAvg speedWind from/ knotsBaromVisibWave heightAir tempDewpointWater temp
2016-Jun-01 01:31N 32°46' E 028°13'1915.8
2016-Jun-01 00:17N 32°52' E 027°51'39215.1
2016-May-30 22:23N 34°41' E 020°18'1315.1
2016-May-30 21:32N 34°45' E 020°03'1515.3
2016-May-30 20:32N 34°50' E 019°45'1515.2
2016-May-30 19:33N 34°54' E 019°28'1515.3
2016-May-30 18:33N 34°59' E 019°10'1815.7
2016-May-30 17:26N 35°05' E 018°50'1415.6
2016-May-30 16:32N 35°09' E 018°33'1515.4
2016-May-30 15:33N 35°14' E 018°16'1515.3
2016-May-30 14:33N 35°18' E 017°58'1515.1
2016-May-30 13:33N 35°23' E 017°40'1515.1
2016-May-30 12:33N 35°27' E 017°22'1615.1
2016-May-30 11:30N 35°32' E 017°04'1617.4
2016-May-30 10:33N 35°36' E 016°44'3617.9
2016-May-30 08:33N 35°46' E 016°02'1818.3
2016-May-30 07:33N 35°52' E 015°40'1818.2
2016-May-30 06:33N 35°56' E 015°19'1817.9
2016-May-30 05:33N 36°02' E 014°58'1818.2
2016-May-30 04:33N 36°07' E 014°36'1817.6
2016-May-30 03:33N 36°12' E 014°15'1717.5
2016-May-30 02:33N 36°17' E 013°55'1817.5
2016-May-30 01:33N 36°22' E 013°34'1818.4
2016-May-30 00:33N 36°28' E 013°12'1817.8
2016-May-29 23:33N 36°34' E 012°51'1818.0
2016-May-29 22:33N 36°44' E 012°32'1818.3
2016-May-29 21:33N 36°53' E 012°12'1818.3
2016-May-29 20:33N 37°02' E 011°52'1818.0
2016-May-29 19:33N 37°11' E 011°33'1818.2
2016-May-29 18:33N 37°20' E 011°13'1918.0
2016-May-29 17:30N 37°26' E 010°50'41818.2
2016-May-28 18:33N 36°53' E 002°07'1919.2
2016-May-28 17:33N 36°50' E 001°44'2019.0
2016-May-28 16:31N 36°47' E 001°19'4218.6
2016-May-28 14:17N 36°41' E 000°28'1318.3
2016-May-28 13:33N 36°39' E 000°12'1818.1
2016-May-28 12:33N 36°37' W 000°11'1918.2
2016-May-28 11:31N 36°34' W 000°34'1818.9
2016-May-28 10:33N 36°31' W 000°57'2019.5
2016-May-28 09:33N 36°28' W 001°21'18418.4
2016-May-27 23:33N 36°01' W 005°06'4120.4
2016-May-27 21:33N 35°54' W 005°56'85817.2
2016-May-25 19:33N 37°35' W 023°40'1414.0
2016-May-25 18:34N 37°36' W 023°57'1414.2
2016-May-25 17:33N 37°36' W 024°15'1414.1
2016-May-25 16:33N 37°36' W 024°33'1414.0
2016-May-25 15:33N 37°36' W 024°51'1414.1
2016-May-25 14:33N 37°37' W 025°09'1514.7
2016-May-25 13:33N 37°37' W 025°27'1414.4
2016-May-25 12:34N 37°38' W 025°45'1414.2
2016-May-25 11:34N 37°42' W 026°02'1413.9
2016-May-25 10:33N 37°47' W 026°19'1414.2
2016-May-25 09:34N 37°51' W 026°36'1414.3
2016-May-25 08:34N 37°55' W 026°53'1413.7
2016-May-25 07:33N 37°59' W 027°10'1414.0
2016-May-25 06:33N 38°03' W 027°27'1514.7
2016-May-25 05:33N 38°07' W 027°45'1514.7
2016-May-25 04:33N 38°12' W 028°02'1515.2
2016-May-25 03:33N 38°18' W 028°21'1515.1
2016-May-25 02:33N 38°23' W 028°39'1414.2
2016-May-25 01:33N 38°28' W 028°56'1413.9
2016-May-25 00:33N 38°34' W 029°12'1414.1
2016-May-24 23:33N 38°39' W 029°28'1414.1
2016-May-24 22:33N 38°45' W 029°45'1414.1
2016-May-24 21:33N 38°51' W 030°01'1414.1
2016-May-24 20:33N 38°57' W 030°18'1414.3
2016-May-24 19:33N 39°04' W 030°34'3514.2
2016-May-24 17:06N 39°16' W 031°16'814.3
2016-May-24 16:33N 39°17' W 031°26'1514.6
2016-May-24 15:31N 39°20' W 031°45'  

Dump ship's entire track history